createdAt,value
2023-04-09T00:02:14.134Z,8.57
2023-04-09T00:04:40.935Z,9.27
2023-04-09T00:07:07.728Z,8.00
2023-04-09T00:09:34.669Z,7.83
2023-04-09T00:12:02.058Z,7.93
2023-04-09T00:14:28.900Z,8.37
2023-04-09T00:16:56.003Z,7.67
2023-04-09T00:19:22.635Z,7.63
2023-04-09T00:21:49.336Z,9.87
2023-04-09T00:24:15.969Z,7.67
2023-04-09T00:26:42.627Z,8.67
2023-04-09T00:29:09.354Z,7.27
2023-04-09T00:31:36.001Z,8.73
2023-04-09T00:34:02.697Z,9.73
2023-04-09T00:36:29.358Z,9.07
2023-04-09T00:38:56.075Z,8.60
2023-04-09T00:41:22.763Z,10.60
2023-04-09T00:43:49.469Z,9.50
2023-04-09T00:46:17.190Z,8.10
2023-04-09T00:48:44.001Z,9.87
2023-04-09T00:51:10.759Z,9.10
2023-04-09T00:53:37.425Z,8.43
2023-04-09T00:56:04.549Z,8.63
2023-04-09T00:58:31.196Z,9.80
2023-04-09T01:00:57.919Z,8.13
2023-04-09T01:03:24.675Z,14.43
2023-04-09T01:06:00.239Z,10.53
2023-04-09T01:08:39.297Z,10.10
2023-04-09T01:11:18.407Z,9.83
2023-04-09T01:13:52.740Z,8.93
2023-04-09T01:16:20.991Z,9.37
2023-04-09T01:18:55.944Z,8.50
2023-04-09T01:21:26.186Z,9.30
2023-04-09T01:23:56.028Z,9.23
2023-04-09T01:26:41.096Z,11.20
2023-04-09T01:29:08.591Z,8.40
2023-04-09T01:31:36.649Z,10.23
2023-04-09T01:34:03.792Z,9.70
2023-04-09T01:36:31.379Z,8.87
2023-04-09T01:39:00.922Z,9.37
2023-04-09T01:41:28.052Z,8.47
2023-04-09T01:43:55.463Z,9.07
2023-04-09T01:46:22.692Z,9.07
2023-04-09T01:48:49.702Z,9.93
2023-04-09T01:51:17.493Z,10.17
2023-04-09T01:53:44.132Z,9.63
2023-04-09T01:56:10.919Z,9.27
2023-04-09T01:58:38.032Z,9.13
2023-04-09T02:01:22.554Z,9.63
2023-04-09T02:03:54.151Z,9.93
2023-04-09T02:06:36.196Z,8.83
2023-04-09T02:09:05.199Z,10.87
2023-04-09T02:11:33.422Z,10.20
2023-04-09T02:14:01.070Z,10.10
2023-04-09T02:16:28.100Z,9.80
2023-04-09T02:18:58.092Z,10.77
2023-04-09T02:21:24.763Z,9.63
2023-04-09T02:23:51.545Z,9.17
2023-04-09T02:26:18.316Z,8.83
2023-04-09T02:28:45.026Z,9.03
2023-04-09T02:31:12.162Z,9.53
2023-04-09T02:33:39.001Z,9.00
2023-04-09T02:36:06.039Z,9.30
2023-04-09T02:38:33.006Z,8.87
2023-04-09T02:40:59.668Z,9.03
2023-04-09T02:43:26.323Z,9.27
2023-04-09T02:45:53.010Z,9.30
2023-04-09T02:48:19.774Z,10.00
2023-04-09T02:50:46.420Z,10.50
2023-04-09T02:53:13.044Z,9.33
2023-04-09T02:55:39.758Z,9.50
2023-04-09T02:58:06.540Z,8.70
2023-04-09T03:00:33.213Z,8.60
2023-04-09T03:03:00.055Z,8.77
2023-04-09T03:05:26.923Z,10.07
2023-04-09T03:07:53.942Z,9.40
2023-04-09T03:10:20.567Z,9.60
2023-04-09T03:12:47.836Z,10.53
2023-04-09T03:15:14.513Z,9.77
2023-04-09T03:17:41.173Z,9.23
2023-04-09T03:20:08.178Z,9.90
2023-04-09T03:22:38.061Z,11.27
2023-04-09T03:25:09.736Z,9.37
2023-04-09T03:27:36.585Z,10.03
2023-04-09T03:30:03.776Z,10.33
2023-04-09T03:32:39.314Z,10.43
2023-04-09T03:35:06.556Z,10.47
2023-04-09T03:37:33.312Z,10.33
2023-04-09T03:40:00.081Z,12.50
2023-04-09T03:42:29.628Z,10.37
2023-04-09T03:44:56.546Z,9.57
2023-04-09T03:47:30.922Z,10.17
2023-04-09T03:49:57.962Z,9.53
2023-04-09T03:52:27.614Z,10.97
2023-04-09T03:55:05.113Z,10.27
2023-04-09T03:57:31.802Z,10.47
2023-04-09T03:59:58.677Z,8.80
2023-04-09T04:02:27.191Z,10.20
2023-04-09T04:05:01.486Z,9.43
2023-04-09T04:07:33.092Z,10.23
2023-04-09T04:10:06.728Z,8.60
2023-04-09T04:12:33.756Z,11.13
2023-04-09T04:15:05.565Z,9.43
2023-04-09T04:17:37.628Z,9.30
2023-04-09T04:20:11.022Z,9.33
2023-04-09T04:22:49.137Z,10.63
2023-04-09T04:25:19.214Z,10.40
2023-04-09T04:27:47.067Z,9.37
2023-04-09T04:30:16.206Z,10.50
2023-04-09T04:32:56.686Z,8.90
2023-04-09T04:35:24.129Z,8.50
2023-04-09T04:37:54.480Z,8.83
2023-04-09T04:40:22.418Z,9.77
2023-04-09T04:42:55.503Z,9.83
2023-04-09T04:45:22.252Z,8.80
2023-04-09T04:47:52.285Z,8.87
2023-04-09T04:50:19.295Z,8.67
2023-04-09T04:52:57.138Z,8.97
2023-04-09T04:55:27.833Z,9.60
2023-04-09T04:57:54.859Z,8.83
2023-04-09T05:00:25.284Z,8.27
2023-04-09T05:02:52.193Z,8.60
2023-04-09T05:05:38.911Z,6.70
2023-04-09T05:08:05.916Z,7.43
2023-04-09T05:10:32.822Z,7.57
2023-04-09T05:12:59.952Z,8.10
2023-04-09T05:15:37.736Z,8.60
2023-04-09T05:18:05.410Z,7.10
2023-04-09T05:20:32.189Z,8.10
2023-04-09T05:23:06.815Z,8.40
2023-04-09T05:25:39.514Z,7.60
2023-04-09T05:28:11.275Z,7.30
2023-04-09T05:30:39.392Z,7.73
2023-04-09T05:33:06.120Z,7.73
2023-04-09T05:35:33.271Z,7.90
2023-04-09T05:38:00.470Z,7.33
2023-04-09T05:40:27.135Z,8.60
2023-04-09T05:42:54.208Z,8.03
2023-04-09T05:45:31.186Z,8.30
2023-04-09T05:47:57.895Z,8.17
2023-04-09T05:50:24.611Z,7.60
2023-04-09T05:52:54.258Z,7.70
2023-04-09T05:55:26.098Z,9.07
2023-04-09T05:57:57.975Z,8.13
2023-04-09T06:00:24.671Z,8.23
2023-04-09T06:02:51.417Z,8.17
2023-04-09T06:05:18.294Z,9.57
2023-04-09T06:07:46.615Z,8.27
2023-04-09T06:10:14.276Z,8.30
2023-04-09T06:12:41.297Z,9.37
2023-04-09T06:15:09.172Z,9.13
2023-04-09T06:17:35.898Z,9.53
2023-04-09T06:20:02.827Z,9.23
2023-04-09T06:22:29.455Z,11.47
2023-04-09T06:24:56.377Z,11.33
2023-04-09T06:27:23.016Z,9.97
2023-04-09T06:29:49.656Z,10.30
2023-04-09T06:32:16.583Z,10.17
2023-04-09T06:34:43.288Z,10.13
2023-04-09T06:37:09.995Z,11.37
2023-04-09T06:39:38.673Z,11.27
2023-04-09T06:42:07.212Z,11.67
2023-04-09T06:44:54.055Z,10.87
2023-04-09T06:47:20.681Z,13.23
2023-04-09T06:49:47.389Z,13.10
2023-04-09T06:52:14.049Z,11.50
2023-04-09T06:54:40.695Z,12.03
2023-04-09T06:57:07.446Z,14.83
2023-04-09T06:59:34.234Z,12.70
2023-04-09T07:02:01.044Z,12.67
2023-04-09T07:04:27.950Z,12.50
2023-04-09T07:06:55.274Z,12.07
2023-04-09T07:09:21.941Z,13.23
2023-04-09T07:11:48.569Z,14.03
2023-04-09T07:14:15.330Z,15.10
2023-04-09T07:16:42.895Z,13.07
2023-04-09T07:19:09.999Z,14.70
2023-04-09T07:21:36.773Z,16.20
2023-04-09T07:24:03.527Z,14.20
2023-04-09T07:26:33.121Z,13.53
2023-04-09T07:28:59.871Z,13.73
2023-04-09T07:31:27.015Z,14.50
2023-04-09T07:33:54.072Z,13.93
2023-04-09T07:36:21.120Z,14.80
2023-04-09T07:38:48.487Z,13.80
2023-04-09T07:41:15.334Z,24.77
2023-04-09T07:43:42.402Z,22.50
2023-04-09T07:46:09.081Z,18.20
2023-04-09T07:48:35.843Z,15.27
2023-04-09T07:51:02.559Z,16.07
2023-04-09T07:53:29.231Z,20.77
2023-04-09T07:55:56.345Z,13.90
2023-04-09T07:58:22.992Z,14.67
2023-04-09T08:00:49.664Z,14.57
2023-04-09T08:03:17.520Z,14.23
2023-04-09T08:05:44.458Z,14.37
2023-04-09T08:08:11.319Z,14.53
2023-04-09T08:10:38.028Z,13.20
2023-04-09T08:13:04.726Z,14.57
2023-04-09T08:15:31.550Z,14.93
2023-04-09T08:17:58.268Z,14.13
2023-04-09T08:20:25.113Z,14.33
2023-04-09T08:22:51.956Z,13.40
2023-04-09T08:25:18.777Z,13.13
2023-04-09T08:27:45.465Z,14.07
2023-04-09T08:30:12.383Z,12.83
2023-04-09T08:32:39.076Z,15.13
2023-04-09T08:35:06.255Z,13.33
2023-04-09T08:37:33.119Z,15.57
2023-04-09T08:39:59.880Z,13.00
2023-04-09T08:42:27.352Z,13.63
2023-04-09T08:44:54.027Z,14.53
2023-04-09T08:47:20.922Z,13.43
2023-04-09T08:49:50.062Z,13.07
2023-04-09T08:52:19.097Z,12.90
2023-04-09T08:54:46.059Z,13.73
2023-04-09T08:57:12.711Z,12.27
2023-04-09T08:59:39.390Z,13.30
2023-04-09T09:02:06.741Z,13.57
2023-04-09T09:04:43.608Z,13.30
2023-04-09T09:07:10.301Z,13.10
2023-04-09T09:09:49.963Z,14.60
2023-04-09T09:12:30.838Z,13.33
2023-04-09T09:14:57.636Z,12.50
2023-04-09T09:17:24.467Z,12.07
2023-04-09T09:19:51.236Z,12.93
2023-04-09T09:22:17.934Z,11.70
2023-04-09T09:24:51.688Z,12.83
2023-04-09T09:27:32.816Z,11.80
2023-04-09T09:30:01.045Z,12.43
2023-04-09T09:32:27.794Z,11.43
2023-04-09T09:35:01.984Z,12.37
2023-04-09T09:37:29.078Z,11.87
2023-04-09T09:39:55.999Z,15.20
2023-04-09T09:42:22.703Z,12.00
2023-04-09T09:44:50.080Z,11.57
2023-04-09T09:47:18.159Z,11.33
2023-04-09T09:49:44.900Z,10.37
2023-04-09T09:52:11.701Z,9.93
2023-04-09T09:54:42.257Z,10.20
2023-04-09T09:57:09.707Z,11.23
2023-04-09T09:59:41.398Z,11.37
2023-04-09T10:02:16.653Z,10.10
2023-04-09T10:04:44.084Z,11.37
2023-04-09T10:07:10.931Z,11.53
2023-04-09T10:09:41.440Z,11.17
2023-04-09T10:12:09.479Z,12.33
2023-04-09T10:14:36.359Z,11.53
2023-04-09T10:17:04.346Z,11.60
2023-04-09T10:19:31.823Z,10.00
2023-04-09T10:22:01.751Z,10.70
2023-04-09T10:24:28.419Z,10.17
2023-04-09T10:26:55.639Z,10.70
2023-04-09T10:29:28.093Z,11.00
2023-04-09T10:32:05.634Z,9.87
2023-04-09T10:34:37.864Z,10.10
2023-04-09T10:37:06.534Z,10.67
2023-04-09T10:39:33.499Z,9.70
2023-04-09T10:42:02.313Z,10.10
2023-04-09T10:44:31.779Z,10.07
2023-04-09T10:46:58.758Z,9.77
2023-04-09T10:49:26.373Z,9.43
2023-04-09T10:52:03.530Z,8.40
2023-04-09T10:54:37.244Z,9.17
2023-04-09T10:57:06.893Z,7.80
2023-04-09T10:59:33.968Z,8.17
2023-04-09T11:02:00.779Z,8.50
2023-04-09T11:04:51.295Z,7.07
2023-04-09T11:07:19.449Z,6.03
2023-04-09T11:09:47.292Z,6.93
2023-04-09T11:12:14.006Z,8.47
2023-04-09T11:14:40.886Z,6.67
2023-04-09T11:17:07.608Z,6.70
2023-04-09T11:19:34.475Z,6.93
2023-04-09T11:22:04.678Z,6.97
2023-04-09T11:24:40.151Z,6.50
2023-04-09T11:27:06.845Z,5.90
2023-04-09T11:29:34.714Z,6.30
2023-04-09T11:32:02.456Z,6.67
2023-04-09T11:34:29.247Z,6.97
2023-04-09T11:36:56.861Z,6.30
2023-04-09T11:39:23.535Z,5.90
2023-04-09T11:41:50.433Z,6.17
2023-04-09T11:44:17.214Z,6.97
2023-04-09T11:46:44.486Z,5.70
2023-04-09T11:49:11.473Z,6.90
2023-04-09T11:51:38.565Z,7.67
2023-04-09T11:54:05.611Z,10.80
2023-04-09T11:56:32.907Z,6.77
2023-04-09T11:59:07.215Z,6.37
2023-04-09T12:01:34.012Z,6.53
2023-04-09T12:04:01.238Z,5.93
2023-04-09T12:06:28.473Z,6.70
2023-04-09T12:08:58.647Z,6.17
2023-04-09T12:11:29.401Z,6.07
2023-04-09T12:13:59.833Z,5.50
2023-04-09T12:16:26.567Z,6.53
2023-04-09T12:18:55.677Z,6.33
2023-04-09T12:21:27.457Z,6.20
2023-04-09T12:23:54.138Z,6.37
2023-04-09T12:26:20.983Z,5.60
2023-04-09T12:28:47.666Z,6.70
2023-04-09T12:31:14.411Z,6.03
2023-04-09T12:33:41.188Z,6.43
2023-04-09T12:36:08.018Z,5.33
2023-04-09T12:38:34.788Z,5.67
2023-04-09T12:41:01.869Z,6.00
2023-04-09T12:43:28.550Z,5.67
2023-04-09T12:45:55.734Z,6.27
2023-04-09T12:48:22.403Z,5.63
2023-04-09T12:50:49.101Z,6.23
2023-04-09T12:53:16.019Z,6.50
2023-04-09T12:55:42.960Z,6.17
2023-04-09T12:58:09.687Z,5.97
2023-04-09T13:00:36.323Z,5.47
2023-04-09T13:03:03.139Z,6.70
2023-04-09T13:05:32.449Z,6.23
2023-04-09T13:07:59.223Z,6.03
2023-04-09T13:10:25.931Z,5.90
2023-04-09T13:12:52.562Z,6.47
2023-04-09T13:15:19.231Z,6.47
2023-04-09T13:17:45.933Z,6.40
2023-04-09T13:20:12.738Z,6.37
2023-04-09T13:22:39.495Z,5.93
2023-04-09T13:25:06.210Z,7.43
2023-04-09T13:27:32.963Z,6.30
2023-04-09T13:29:59.877Z,7.03
2023-04-09T13:32:27.025Z,6.63
2023-04-09T13:34:55.192Z,6.30
2023-04-09T13:37:21.942Z,6.33
2023-04-09T13:39:49.206Z,6.97
2023-04-09T13:42:16.951Z,6.73
2023-04-09T13:44:45.326Z,6.37
2023-04-09T13:47:13.056Z,6.00
2023-04-09T13:49:40.684Z,6.60
2023-04-09T13:52:07.338Z,7.93
2023-04-09T13:54:34.346Z,9.60
2023-04-09T13:57:04.109Z,7.93
2023-04-09T13:59:30.885Z,8.03
2023-04-09T14:01:57.727Z,6.73
2023-04-09T14:04:24.654Z,6.80
2023-04-09T14:06:51.362Z,6.90
2023-04-09T14:09:17.995Z,6.50
2023-04-09T14:11:44.780Z,7.93
2023-04-09T14:14:11.411Z,7.63
2023-04-09T14:16:38.219Z,7.07
2023-04-09T14:19:04.976Z,6.87
2023-04-09T14:21:31.892Z,7.43
2023-04-09T14:23:58.537Z,7.63
2023-04-09T14:26:26.502Z,6.80
2023-04-09T14:28:53.269Z,7.00
2023-04-09T14:31:21.446Z,7.20
2023-04-09T14:33:48.788Z,7.50
2023-04-09T14:36:15.801Z,7.33
2023-04-09T14:38:42.444Z,6.10
2023-04-09T14:41:09.211Z,6.73
2023-04-09T14:43:35.864Z,6.57
2023-04-09T14:46:03.888Z,6.70
2023-04-09T14:48:30.579Z,6.00
2023-04-09T14:50:57.312Z,5.27
2023-04-09T14:53:24.159Z,5.93
2023-04-09T14:55:50.997Z,5.97
2023-04-09T14:58:17.686Z,6.10
2023-04-09T15:00:45.030Z,6.10
2023-04-09T15:03:11.961Z,6.30
2023-04-09T15:05:39.025Z,16.33
2023-04-09T15:08:05.817Z,25.27
2023-04-09T15:10:32.465Z,7.50
2023-04-09T15:12:59.143Z,9.03
2023-04-09T15:15:26.585Z,6.53
2023-04-09T15:17:53.335Z,6.43
2023-04-09T15:20:20.328Z,6.73
2023-04-09T15:22:46.960Z,6.37
2023-04-09T15:25:14.353Z,6.57
2023-04-09T15:27:41.267Z,6.47
2023-04-09T15:30:08.235Z,6.73
2023-04-09T15:32:34.991Z,6.27
2023-04-09T15:35:01.822Z,7.80
2023-04-09T15:37:28.537Z,5.83
2023-04-09T15:39:55.284Z,5.83
2023-04-09T15:42:22.917Z,5.87
2023-04-09T15:44:50.284Z,6.03
2023-04-09T15:47:17.115Z,5.93
2023-04-09T15:49:43.794Z,6.20
2023-04-09T15:52:10.638Z,6.10
2023-04-09T15:54:37.439Z,6.07
2023-04-09T15:57:04.156Z,6.63
2023-04-09T15:59:30.799Z,6.37
2023-04-09T16:01:57.673Z,6.13
2023-04-09T16:04:24.516Z,7.80
2023-04-09T16:06:51.239Z,6.30
2023-04-09T16:09:17.941Z,5.83
2023-04-09T16:11:45.001Z,5.90
2023-04-09T16:14:11.710Z,6.47
2023-04-09T16:16:38.653Z,7.17
2023-04-09T16:19:05.612Z,6.17
2023-04-09T16:21:32.431Z,6.07
2023-04-09T16:24:00.636Z,6.20
2023-04-09T16:26:27.422Z,6.60
2023-04-09T16:28:54.422Z,12.40
2023-04-09T16:31:21.517Z,29.67
2023-04-09T16:33:48.290Z,40.93
2023-04-09T16:36:15.351Z,7.03
2023-04-09T16:38:42.012Z,6.57
2023-04-09T16:41:08.701Z,6.57
2023-04-09T16:43:35.795Z,7.13
2023-04-09T16:46:02.603Z,7.27
2023-04-09T16:48:29.288Z,7.60
2023-04-09T16:50:55.951Z,7.70
2023-04-09T16:53:22.637Z,7.40
2023-04-09T16:55:49.880Z,8.73
2023-04-09T16:58:16.600Z,7.10
2023-04-09T17:00:46.088Z,7.77
2023-04-09T17:03:13.653Z,6.87
2023-04-09T17:05:40.489Z,7.10
2023-04-09T17:08:07.146Z,8.07
2023-04-09T17:10:36.140Z,7.07
2023-04-09T17:13:02.833Z,6.30
2023-04-09T17:15:29.534Z,7.17
2023-04-09T17:17:58.240Z,6.60
2023-04-09T17:20:25.906Z,6.20
2023-04-09T17:22:52.543Z,7.10
2023-04-09T17:25:20.400Z,6.20
2023-04-09T17:27:47.112Z,7.00
2023-04-09T17:30:13.856Z,6.27
2023-04-09T17:32:40.578Z,6.73
2023-04-09T17:35:07.485Z,6.03
2023-04-09T17:37:35.399Z,6.63
2023-04-09T17:40:02.838Z,6.33
2023-04-09T17:42:30.044Z,7.93
2023-04-09T17:44:56.805Z,7.30
2023-04-09T17:47:23.463Z,8.10
2023-04-09T17:49:50.119Z,9.93
2023-04-09T17:52:16.800Z,8.57
2023-04-09T17:54:45.552Z,11.17
2023-04-09T17:57:12.300Z,14.23
2023-04-09T17:59:39.281Z,13.13
2023-04-09T18:02:06.653Z,33.70
2023-04-09T18:04:33.822Z,31.80
2023-04-09T18:07:00.865Z,15.27
2023-04-09T18:09:27.572Z,11.47
2023-04-09T18:11:56.286Z,8.90
2023-04-09T18:14:23.276Z,9.57
2023-04-09T18:16:50.048Z,12.27
2023-04-09T18:19:16.951Z,9.50
2023-04-09T18:21:43.571Z,9.47
2023-04-09T18:24:10.270Z,9.50
2023-04-09T18:26:37.013Z,9.03
2023-04-09T18:29:04.229Z,10.17
2023-04-09T18:31:31.003Z,9.93
2023-04-09T18:33:57.646Z,11.20
2023-04-09T18:36:24.310Z,13.40
2023-04-09T18:38:51.805Z,12.80
2023-04-09T18:41:22.594Z,14.60
2023-04-09T18:43:49.252Z,13.17
2023-04-09T18:46:16.099Z,14.07
2023-04-09T18:48:43.558Z,11.97
2023-04-09T18:51:11.219Z,12.80
2023-04-09T18:53:37.889Z,10.20
2023-04-09T18:56:04.749Z,9.47
2023-04-09T18:58:31.822Z,9.70
2023-04-09T19:00:58.636Z,8.63
2023-04-09T19:03:27.117Z,9.37
2023-04-09T19:05:55.632Z,9.13
2023-04-09T19:08:22.373Z,9.83
2023-04-09T19:10:49.129Z,9.93
2023-04-09T19:13:16.763Z,9.57
2023-04-09T19:15:43.494Z,9.43
2023-04-09T19:18:10.313Z,11.13
2023-04-09T19:20:37.604Z,9.03
2023-04-09T19:23:04.866Z,8.90
2023-04-09T19:25:32.848Z,9.90
2023-04-09T19:27:59.529Z,9.30
2023-04-09T19:30:26.270Z,10.27
2023-04-09T19:32:53.384Z,8.80
2023-04-09T19:35:20.591Z,9.83
2023-04-09T19:37:47.311Z,10.27
2023-04-09T19:40:16.690Z,9.27
2023-04-09T19:42:43.710Z,9.53
2023-04-09T19:45:10.664Z,9.57
2023-04-09T19:47:37.332Z,9.80
2023-04-09T19:50:04.240Z,9.60
2023-04-09T19:52:30.920Z,212.57
2023-04-09T19:54:57.943Z,150.53
2023-04-09T19:57:26.328Z,96.83
2023-04-09T19:59:53.957Z,18.77
2023-04-09T20:02:21.022Z,12.90
2023-04-09T20:04:47.854Z,11.30
2023-04-09T20:07:15.562Z,9.53
2023-04-09T20:09:42.423Z,9.67
2023-04-09T20:12:09.820Z,9.23
2023-04-09T20:14:37.999Z,9.73
2023-04-09T20:17:05.301Z,10.13
2023-04-09T20:19:32.341Z,9.60
2023-04-09T20:22:01.873Z,12.63
2023-04-09T20:24:28.669Z,11.67
2023-04-09T20:26:55.777Z,11.37
2023-04-09T20:29:22.551Z,10.57
2023-04-09T20:31:49.358Z,11.47
2023-04-09T20:34:16.144Z,10.43
2023-04-09T20:36:43.895Z,10.67
2023-04-09T20:39:11.467Z,9.63
2023-04-09T20:41:38.343Z,10.03
2023-04-09T20:44:05.786Z,10.37
2023-04-09T20:46:32.480Z,10.93
2023-04-09T20:48:59.188Z,12.00
2023-04-09T20:51:25.906Z,11.87
2023-04-09T20:53:52.618Z,11.20
2023-04-09T20:56:19.354Z,12.23
2023-04-09T20:58:46.045Z,11.50
2023-04-09T21:01:12.984Z,11.83
2023-04-09T21:03:40.175Z,13.07
2023-04-09T21:06:07.094Z,11.83
2023-04-09T21:08:33.959Z,14.10
2023-04-09T21:11:00.755Z,11.33
2023-04-09T21:13:27.593Z,10.67
2023-04-09T21:15:54.378Z,13.43
2023-04-09T21:18:21.518Z,12.87
2023-04-09T21:20:48.843Z,12.17
2023-04-09T21:23:15.859Z,11.27
2023-04-09T21:25:42.628Z,11.50
2023-04-09T21:28:09.296Z,11.87
2023-04-09T21:30:37.459Z,13.23
2023-04-09T21:33:05.613Z,12.00
2023-04-09T21:35:32.524Z,13.30
2023-04-09T21:37:59.199Z,12.37
2023-04-09T21:40:25.845Z,13.10
2023-04-09T21:42:52.652Z,14.57
2023-04-09T21:45:19.324Z,13.83
2023-04-09T21:47:46.297Z,14.33
2023-04-09T21:50:13.582Z,13.10
2023-04-09T21:52:40.348Z,13.73
2023-04-09T21:55:07.575Z,12.17
2023-04-09T21:57:34.283Z,12.63
2023-04-09T22:00:01.039Z,12.17
2023-04-09T22:02:27.955Z,12.10
2023-04-09T22:04:54.969Z,13.80
2023-04-09T22:07:21.849Z,10.97
2023-04-09T22:09:48.629Z,11.80
2023-04-09T22:12:15.283Z,11.70
2023-04-09T22:14:42.104Z,11.63
2023-04-09T22:17:09.023Z,11.70
2023-04-09T22:19:35.703Z,11.90
2023-04-09T22:22:02.401Z,13.13
2023-04-09T22:24:30.160Z,13.00
2023-04-09T22:26:58.838Z,14.10
2023-04-09T22:29:26.406Z,13.33
2023-04-09T22:31:53.278Z,12.07
2023-04-09T22:34:21.921Z,11.80
2023-04-09T22:36:49.097Z,12.33
2023-04-09T22:39:15.976Z,13.27
2023-04-09T22:41:42.703Z,11.43
2023-04-09T22:44:09.582Z,13.70
2023-04-09T22:46:36.632Z,13.30
2023-04-09T22:49:05.580Z,12.47
2023-04-09T22:51:34.420Z,11.57
2023-04-09T22:54:01.811Z,12.47
2023-04-09T22:56:28.728Z,11.77
2023-04-09T22:58:55.709Z,14.07
2023-04-09T23:01:23.144Z,12.60
2023-04-09T23:03:50.480Z,11.67
2023-04-09T23:06:17.266Z,11.77
2023-04-09T23:08:44.124Z,13.57
2023-04-09T23:11:11.098Z,13.03
2023-04-09T23:13:38.530Z,11.90
2023-04-09T23:16:08.379Z,12.37
2023-04-09T23:18:35.421Z,13.00
2023-04-09T23:21:06.529Z,13.10
2023-04-09T23:23:33.978Z,12.20
2023-04-09T23:26:00.851Z,13.97
2023-04-09T23:28:27.764Z,21.07
2023-04-09T23:30:54.746Z,17.60
2023-04-09T23:33:21.495Z,30.73
2023-04-09T23:35:48.226Z,20.63
2023-04-09T23:38:15.494Z,12.50
2023-04-09T23:40:42.567Z,13.07
2023-04-09T23:43:09.356Z,12.87
2023-04-09T23:45:36.009Z,12.67
2023-04-09T23:48:03.241Z,13.00
2023-04-09T23:50:30.331Z,11.80
2023-04-09T23:52:59.669Z,12.43
2023-04-09T23:55:27.098Z,12.37
2023-04-09T23:57:53.811Z,11.47
